createdAt,value
2017-03-23T17:22:57.510Z,75.84
2017-03-23T17:24:06.710Z,74.98
2017-03-23T17:25:15.618Z,74.94
2017-03-23T17:26:24.487Z,75.62
2017-03-23T17:27:33.344Z,75.81
2017-03-23T17:28:42.209Z,75.23
2017-03-23T17:29:51.076Z,75.13
2017-03-23T17:30:59.955Z,75.42
2017-03-23T17:32:08.822Z,75.23
2017-03-23T17:33:17.706Z,75.04
2017-03-23T17:34:26.579Z,74.46
2017-03-23T17:35:35.760Z,74.46
2017-03-23T17:36:44.613Z,74.27
2017-03-23T17:37:53.485Z,74.75
2017-03-23T17:39:02.366Z,74.17
2017-03-23T17:40:11.231Z,74.08
2017-03-23T17:41:20.085Z,74.08
2017-03-23T17:42:28.963Z,73.6
2017-03-23T17:43:37.908Z,73.69
2017-03-23T17:44:46.777Z,73.5
2017-03-23T17:45:55.636Z,73.41
2017-03-23T17:47:04.492Z,73.41
2017-03-23T17:48:13.358Z,73.31
2017-03-23T17:49:22.221Z,73.69
2017-03-23T17:50:31.084Z,73.63
2017-03-23T17:51:39.941Z,73.15
2017-03-23T17:52:48.808Z,73.25
2017-03-23T17:53:57.677Z,73.25
2017-03-23T17:55:06.546Z,73.06
2017-03-23T17:56:15.731Z,73.06
2017-03-23T17:57:24.585Z,72.86
2017-03-23T17:58:33.451Z,72.86
2017-03-23T17:59:42.327Z,71.91
2017-03-23T18:00:51.184Z,72.19
2017-03-23T18:02:00.053Z,72.38
2017-03-23T18:03:08.909Z,72.29
2017-03-23T18:04:17.773Z,71.71
2017-03-23T18:05:26.635Z,71.81
2017-03-23T18:06:35.820Z,71.71
2017-03-23T18:07:44.683Z,72.03
2017-03-23T18:08:53.544Z,72
2017-03-23T18:10:02.403Z,71.91
2017-03-23T18:11:11.259Z,71.55
2017-03-23T18:12:20.121Z,72.13
2017-03-23T18:13:28.984Z,71.94
2017-03-23T18:14:37.865Z,71.65
2017-03-23T18:15:46.720Z,71.65
2017-03-23T18:16:55.580Z,71.75
2017-03-23T18:18:04.453Z,71.46
2017-03-23T18:19:13.331Z,71.36
2017-03-23T18:20:22.200Z,72.23
2017-03-23T18:21:31.106Z,72.03
2017-03-23T18:22:39.962Z,72.13
2017-03-23T18:23:48.830Z,72.61
2017-03-23T18:24:57.703Z,72.13
2017-03-23T18:26:06.894Z,72.03
2017-03-23T18:27:15.763Z,71.84
2017-03-23T18:28:24.949Z,71.94
2017-03-23T18:29:33.814Z,71.55
2017-03-23T18:30:42.668Z,71.36
2017-03-23T18:31:51.534Z,71.17
2017-03-23T18:33:00.711Z,71.46
2017-03-23T18:34:09.573Z,71.26
2017-03-23T18:35:18.431Z,71.49
2017-03-23T18:36:27.287Z,71.59
2017-03-23T18:37:36.155Z,71.4
2017-03-23T18:38:45.016Z,70.92
2017-03-23T18:39:53.885Z,70.72
2017-03-23T18:41:02.746Z,70.82
2017-03-23T18:42:11.604Z,71.01
2017-03-23T18:43:20.471Z,70.72
2017-03-23T18:44:29.342Z,70.62
2017-03-23T18:45:38.209Z,70.62
2017-03-23T18:46:47.070Z,71.2
2017-03-23T18:47:55.934Z,71.49
2017-03-23T18:49:04.800Z,71.4
2017-03-23T18:50:13.662Z,71.97
2017-03-23T18:51:22.518Z,72.74
2017-03-23T18:52:31.378Z,71.97
2017-03-23T18:53:40.245Z,71.88
2017-03-23T18:54:49.108Z,71.49
2017-03-23T18:55:57.969Z,71.59
2017-03-23T18:57:06.866Z,71.69
2017-03-23T18:58:15.724Z,71.59
2017-03-23T18:59:24.595Z,70.62
2017-03-23T19:00:33.769Z,70.86
2017-03-23T19:01:42.635Z,71.04
2017-03-23T19:02:51.493Z,70.47
2017-03-23T19:04:00.368Z,70.76
2017-03-23T19:05:09.228Z,70.66
2017-03-23T19:06:18.086Z,70.47
2017-03-23T19:07:27.267Z,70.66
2017-03-23T19:08:36.124Z,70.66
2017-03-23T19:09:45.313Z,70.47
2017-03-23T19:10:54.164Z,70.66
2017-03-23T19:12:03.026Z,70.66
2017-03-23T19:13:11.896Z,70.66
2017-03-23T19:14:20.764Z,70.56
2017-03-23T19:15:29.639Z,70.66
2017-03-23T19:16:38.498Z,70.37
2017-03-23T19:17:47.362Z,71.04
2017-03-23T19:18:56.230Z,70.56
2017-03-23T19:20:05.092Z,70.86
2017-03-23T19:21:13.957Z,71.04
2017-03-23T19:22:22.825Z,71.62
2017-03-23T19:23:31.687Z,70.56
2017-03-23T19:24:40.561Z,70.7
2017-03-23T19:25:49.418Z,71.43
2017-03-23T19:26:58.336Z,71.62
2017-03-23T19:28:07.198Z,71.53
2017-03-23T19:29:16.074Z,71.81
2017-03-23T19:30:24.944Z,71.62
2017-03-23T19:31:33.816Z,71.62
2017-03-23T19:32:42.682Z,70.95
2017-03-23T19:33:51.872Z,70.98
2017-03-23T19:35:00.736Z,71.34
2017-03-23T19:36:09.602Z,71.56
2017-03-23T19:37:18.459Z,71.62
2017-03-23T19:38:27.323Z,71.91
2017-03-23T19:39:36.191Z,71.81
2017-03-23T19:40:45.067Z,71.53
2017-03-23T19:41:53.924Z,71.81
2017-03-23T19:43:02.789Z,71.66
2017-03-23T19:44:11.647Z,71.95
2017-03-23T19:45:20.521Z,71.66
2017-03-23T19:46:29.387Z,71.76
2017-03-23T19:47:38.567Z,71.85
2017-03-23T19:48:47.462Z,71.18
2017-03-23T19:49:57.129Z,71.47
2017-03-23T19:51:06.010Z,70.7
2017-03-23T19:52:14.872Z,71.85
2017-03-23T19:53:23.735Z,71.76
2017-03-23T19:54:32.619Z,71.89
2017-03-23T19:55:41.634Z,71.22
2017-03-23T19:56:50.500Z,71.5
2017-03-23T19:57:59.372Z,70.83
2017-03-23T19:59:08.319Z,71.02
2017-03-23T20:00:17.198Z,71.22
2017-03-23T20:01:26.678Z,71.08
2017-03-23T20:02:36.612Z,71.02
2017-03-23T20:03:45.828Z,70.92
2017-03-23T20:04:56.328Z,71.6
2017-03-23T20:06:08.762Z,71.5
2017-03-23T20:07:18.819Z,71.5
2017-03-23T20:08:27.729Z,71.02
2017-03-23T20:09:36.653Z,70.73
2017-03-23T20:10:45.540Z,70.64
2017-03-23T20:11:54.400Z,70.54
2017-03-23T20:13:03.266Z,71.31
2017-03-23T20:14:12.141Z,70.83
2017-03-23T20:15:21.275Z,70.54
2017-03-23T20:16:30.882Z,70.73
2017-03-23T20:17:40.099Z,70.54
2017-03-23T20:18:49.195Z,70.28
2017-03-23T20:19:58.299Z,70.38
2017-03-23T20:21:07.245Z,70.86
2017-03-23T20:22:16.843Z,71.25
2017-03-23T20:23:25.799Z,71.25
2017-03-23T20:24:34.690Z,70.76
2017-03-23T20:25:43.549Z,70.76
2017-03-23T20:26:52.511Z,70.86
2017-03-23T20:28:02.203Z,70.57
2017-03-23T20:29:11.208Z,70.28
2017-03-23T20:30:20.332Z,70.67
2017-03-23T20:31:29.624Z,70.38
2017-03-23T20:32:38.497Z,70.38
2017-03-23T20:33:47.376Z,70.76
2017-03-23T20:34:56.406Z,70.28
2017-03-23T20:36:05.680Z,70.76
2017-03-23T20:37:14.546Z,70.57
2017-03-23T20:38:23.419Z,70.09
2017-03-23T20:39:32.394Z,70.19
2017-03-23T20:40:41.911Z,70.19
2017-03-23T20:41:51.159Z,70.09
2017-03-23T20:43:00.912Z,70.09
2017-03-23T20:44:10.034Z,70.19
2017-03-23T20:45:19.409Z,69.71
2017-03-23T20:46:28.264Z,69.93
2017-03-23T20:47:37.480Z,69.93
2017-03-23T20:48:46.381Z,70.09
2017-03-23T20:49:55.248Z,70.09
2017-03-23T20:51:04.960Z,70.09
2017-03-23T20:52:13.830Z,69.93
2017-03-23T20:53:22.689Z,70.22
2017-03-23T20:54:31.561Z,70.22
2017-03-23T20:55:40.425Z,70.22
2017-03-23T20:56:49.643Z,70.13
2017-03-23T20:57:58.508Z,70.13
2017-03-23T20:59:07.383Z,70.22
2017-03-23T21:00:16.246Z,69.74
2017-03-23T21:01:25.109Z,69.64
2017-03-23T21:02:33.981Z,69.74
2017-03-23T21:03:42.846Z,69.74
2017-03-23T21:04:52.033Z,69.74
2017-03-23T21:06:01.044Z,69.74
2017-03-23T21:07:09.947Z,69.74
2017-03-23T21:08:18.813Z,69.74
2017-03-23T21:09:27.680Z,69.84
2017-03-23T21:10:36.546Z,69.45
2017-03-23T21:11:45.412Z,69.55
2017-03-23T21:12:54.273Z,69.74
2017-03-23T21:14:03.145Z,69.16
2017-03-23T21:15:12.010Z,69.55
2017-03-23T21:16:20.881Z,69.45
2017-03-23T21:17:29.743Z,69.93
2017-03-23T21:18:39.829Z,69.58
2017-03-23T21:19:48.697Z,69.45
2017-03-23T21:20:57.564Z,69.29
2017-03-23T21:22:06.432Z,69.49
2017-03-23T21:23:15.614Z,69.29
2017-03-23T21:24:24.491Z,69.29
2017-03-23T21:25:35.043Z,69.29
2017-03-23T21:26:44.758Z,69.2
2017-03-23T21:27:53.637Z,69.58
2017-03-23T21:29:02.872Z,69.29
2017-03-23T21:30:12.062Z,69.58
2017-03-23T21:31:20.953Z,69
2017-03-23T21:32:29.815Z,69.39
2017-03-23T21:33:38.684Z,69.29
2017-03-23T21:34:47.549Z,69.58
2017-03-23T21:35:56.420Z,69.1
2017-03-23T21:37:06.145Z,69
2017-03-23T21:38:15.028Z,69.49
2017-03-23T21:39:25.563Z,69.29
2017-03-23T21:40:34.593Z,69.2
2017-03-23T21:41:43.495Z,69
2017-03-23T21:42:52.590Z,69.2
2017-03-23T21:44:01.473Z,69.1
2017-03-23T21:45:10.341Z,69.2
2017-03-23T21:46:19.264Z,68.81
2017-03-23T21:47:28.135Z,69.29
2017-03-23T21:48:37.361Z,69
2017-03-23T21:49:46.462Z,68.81
2017-03-23T21:50:55.321Z,68.91
2017-03-23T21:52:04.206Z,68.81
2017-03-23T21:53:13.574Z,68.62
2017-03-23T21:54:23.933Z,68.81
2017-03-23T21:55:33.470Z,68.71
2017-03-23T21:56:42.733Z,68.84
2017-03-23T21:57:53.198Z,68.91
2017-03-23T21:59:02.758Z,68.71
2017-03-23T22:00:12.039Z,68.75
2017-03-23T22:01:20.999Z,68.71
2017-03-23T22:02:30.019Z,69
2017-03-23T22:03:39.035Z,68.71
2017-03-23T22:04:48.156Z,68.84
2017-03-23T22:05:57.277Z,69.1
2017-03-23T22:07:06.323Z,69.29
2017-03-23T22:08:15.429Z,69.49
2017-03-23T22:09:24.544Z,70
2017-03-23T22:10:33.433Z,67.75
2017-03-23T22:11:42.293Z,66.11
2017-03-23T22:12:51.206Z,62.73
2017-03-23T22:14:00.081Z,60.71
2017-03-23T22:15:08.953Z,59.9
2017-03-23T22:16:17.824Z,58.94
2017-03-23T22:17:26.692Z,58.84
2017-03-23T22:18:35.876Z,59.1
2017-03-23T22:19:44.737Z,57.97
2017-03-23T22:20:53.608Z,58.04
2017-03-23T22:22:02.464Z,58.91
2017-03-23T22:23:11.339Z,58.01
2017-03-23T22:24:20.522Z,58.01
2017-03-23T22:25:29.389Z,58.11
2017-03-23T22:26:38.253Z,58.01
2017-03-23T22:27:47.110Z,58.01
2017-03-23T22:28:55.983Z,57.89
2017-03-23T22:30:04.854Z,57.79
2017-03-23T22:31:13.725Z,58.56
2017-03-23T22:32:22.581Z,57.5
2017-03-23T22:33:31.440Z,58.27
2017-03-23T22:34:40.325Z,57.79
2017-03-23T22:35:49.188Z,57.76
2017-03-23T22:36:58.051Z,57.09
2017-03-23T22:38:06.906Z,58.05
2017-03-23T22:39:15.776Z,57.76
2017-03-23T22:40:24.643Z,57.86
2017-03-23T22:41:33.509Z,57.76
2017-03-23T22:42:42.370Z,56.8
2017-03-23T22:43:51.244Z,57.25
2017-03-23T22:45:00.116Z,57.25
2017-03-23T22:46:08.974Z,56.87
2017-03-23T22:47:17.839Z,57.15
2017-03-23T22:48:26.700Z,57.45
2017-03-23T22:49:35.572Z,57.13
2017-03-23T22:50:44.438Z,56.96
2017-03-23T22:51:53.623Z,57.13
2017-03-23T22:53:02.479Z,57.03
2017-03-23T22:54:11.703Z,56.84
2017-03-23T22:55:20.576Z,56.74
2017-03-23T22:56:29.470Z,56.93
2017-03-23T22:57:38.333Z,57.13
2017-03-23T22:58:47.209Z,57.1
2017-03-23T22:59:56.413Z,57.1
2017-03-23T23:01:05.299Z,57
2017-03-23T23:02:14.158Z,57.1
2017-03-23T23:03:23.029Z,56.91
2017-03-23T23:04:32.203Z,56.81
2017-03-23T23:05:41.063Z,57
2017-03-23T23:06:49.923Z,56.62
2017-03-23T23:07:59.415Z,56.81
2017-03-23T23:09:08.282Z,56.81
2017-03-23T23:10:17.151Z,56.98
2017-03-23T23:11:26.012Z,57.07
2017-03-23T23:12:34.873Z,57.26
2017-03-23T23:13:43.746Z,56.98
2017-03-23T23:14:52.605Z,57.17
2017-03-23T23:16:01.507Z,56.98
2017-03-23T23:17:10.365Z,56.66
2017-03-23T23:18:19.229Z,56.3
2017-03-23T23:19:28.099Z,56.78
2017-03-23T23:20:36.962Z,56.78
2017-03-23T23:21:45.827Z,57.71
2017-03-23T23:22:54.698Z,57.14
2017-03-23T23:24:03.564Z,56.95
2017-03-23T23:25:12.754Z,57.81
2017-03-23T23:26:21.935Z,57.33
2017-03-23T23:27:30.793Z,57.62
2017-03-23T23:28:39.652Z,57.62
2017-03-23T23:29:48.514Z,57.71
2017-03-23T23:30:57.371Z,57.81
2017-03-23T23:32:06.237Z,57.33
2017-03-23T23:33:15.094Z,57.81
2017-03-23T23:34:23.961Z,57.81
2017-03-23T23:35:32.827Z,57.52
2017-03-23T23:36:41.689Z,57.43
2017-03-23T23:37:50.546Z,57.4
2017-03-23T23:38:59.414Z,57.5
2017-03-23T23:40:08.281Z,57.5
2017-03-23T23:41:17.140Z,57.59
2017-03-23T23:42:26.004Z,57.68
2017-03-23T23:43:34.872Z,57.3
2017-03-23T23:44:43.743Z,57.78
2017-03-23T23:45:52.596Z,57.88
2017-03-23T23:47:01.456Z,57.88
2017-03-23T23:48:10.315Z,57.75
2017-03-23T23:49:19.183Z,57.65
2017-03-23T23:50:28.054Z,57.65
2017-03-23T23:51:36.909Z,57.88
2017-03-23T23:52:45.769Z,57.56
2017-03-23T23:53:54.634Z,57.65
2017-03-23T23:55:03.816Z,57.46
2017-03-23T23:56:12.676Z,57.75
2017-03-23T23:57:21.534Z,58.04
2017-03-23T23:58:30.384Z,58.04
2017-03-23T23:59:39.253Z,58.71
